Airfield :
LOGIN :

Register | Disclaimer

   EN    FR    IT 

 










Legend :    VFR   Marginal VFR   IFR   Intensive IFR   Very Intensive IFR
Visi :
Ceiling :
>= 8 km
>= 3000ft
5 to 8 km
1000 to 3000 ft
1500m to 5 km
500 to 1000 ft
800 to 1500m
200 to 500 ft
< 800m
< 200 ft
Symbols :   Thunderstorms  Fog  Heavy snow  Heavy precipitations  Wind > 20 kt
SIGMETs :     Misc.  Thunderstorms  Icing  Turbulence  Mountain Waves  Volcanic Ashes







- Airport Elevation : 202 ft
- IATA code : LGW
- Download approach charts


EGKK - London Gatwick

CURRENT METAR :
  • 220350Z 20003KT 8000 MIFG NSC 07/07 Q1020

EXPIRED METARs :
  • 220320Z 22003KT 7000 MIFG NSC 07/07 Q1020
  • 220250Z 21002KT 7000 MIFG NSC 08/08 Q1020
  • 220220Z VRB02KT 8000 NSC 08/08 Q1020
  • 220150Z 18002KT 8000 NSC 09/09 Q1020
  • 220120Z VRB02KT 9000 NSC 08/08 Q1020

TAF TAF EGKK
Valid from the 22 at 00:00 until the 23 at 06:00 UTC


212304Z 2200/2306 28005KT 9999 FEW040
BECMG 2200/2203 7000
TEMPO 2201/2208 3000 BR BCFG
PROB40 2203/2208 0400 FG BKN001
BECMG 2208/2211 22010KT 9999
BECMG 2303/2306 16004KT
PROB30
TEMPO 2303/2306 8000 -RA
No reported NOTAMs for that airfield.



MET'MAP, your aeronautical weather chart ! - Copyright ORBIFLY December 2007 - Disclaimer

ORBIFLY MET'MAP TEAM :

Programming & Development : Alexandra Zaïnal
Concept & Development : Baudouin d'Aumeries
Co-Development & Prog : Marc-Olivier Méhu
Technical & hardware support : Manuel Goepfert

Contact : metmap@orbifly.com




SOURCES & CREDITS :

   NOAA